createdAt,value
2023-12-09T00:01:45.237Z,100738.59
2023-12-09T00:04:13.339Z,100736.36
2023-12-09T00:06:49.645Z,100733.08
2023-12-09T00:09:21.187Z,100734.63
2023-12-09T00:11:49.395Z,100737.89
2023-12-09T00:14:17.494Z,100735.66
2023-12-09T00:16:46.705Z,100733.24
2023-12-09T00:19:15.033Z,100735.48
2023-12-09T00:21:43.325Z,100737.70
2023-12-09T00:24:11.589Z,100738.22
2023-12-09T00:26:39.825Z,100741.48
2023-12-09T00:29:08.282Z,100740.27
2023-12-09T00:31:36.202Z,100741.16
2023-12-09T00:34:04.339Z,100740.98
2023-12-09T00:36:32.808Z,100735.84
2023-12-09T00:39:00.720Z,100737.02
2023-12-09T00:41:29.166Z,100738.05
2023-12-09T00:43:57.207Z,100737.02
2023-12-09T00:46:25.539Z,100735.80
2023-12-09T00:48:53.903Z,100738.35
2023-12-09T00:51:22.142Z,100741.45
2023-12-09T00:53:50.107Z,100741.98
2023-12-09T00:56:33.197Z,100741.66
2023-12-09T00:59:04.237Z,100738.04
2023-12-09T01:01:34.688Z,100736.98
2023-12-09T01:04:03.116Z,100736.65
2023-12-09T01:06:31.409Z,100735.27
2023-12-09T01:08:59.548Z,100736.27
2023-12-09T01:11:28.661Z,100735.04
2023-12-09T01:13:56.710Z,100737.27
2023-12-09T01:16:24.966Z,100735.88
2023-12-09T01:18:53.432Z,100734.31
2023-12-09T01:21:21.723Z,100731.38
2023-12-09T01:23:50.059Z,100730.51
2023-12-09T01:26:18.071Z,100729.63
2023-12-09T01:28:46.096Z,100732.19
2023-12-09T01:31:14.081Z,100731.64
2023-12-09T01:33:42.788Z,100729.52
2023-12-09T01:36:11.070Z,100731.05
2023-12-09T01:38:38.992Z,100735.15
2023-12-09T01:41:07.502Z,100729.64
2023-12-09T01:43:35.526Z,100725.51
2023-12-09T01:46:11.157Z,100730.13
2023-12-09T01:48:39.780Z,100734.91
2023-12-09T01:51:08.908Z,100729.06
2023-12-09T01:53:37.444Z,100722.71
2023-12-09T01:56:10.348Z,100718.92
2023-12-09T01:58:38.998Z,100720.45
2023-12-09T02:01:07.819Z,100720.25
2023-12-09T02:03:36.329Z,100720.75
2023-12-09T02:06:04.618Z,100722.30
2023-12-09T02:08:33.600Z,100724.90
2023-12-09T02:11:13.492Z,100723.20
2023-12-09T02:14:08.937Z,100719.09
2023-12-09T02:16:49.839Z,100719.04
2023-12-09T02:19:19.387Z,100718.69
2023-12-09T02:21:59.426Z,100721.77
2023-12-09T02:24:27.937Z,100724.73
2023-12-09T02:27:08.520Z,100729.04
2023-12-09T02:29:52.724Z,100721.33
2023-12-09T02:32:25.744Z,100716.33
2023-12-09T02:34:56.624Z,100712.56
2023-12-09T02:37:27.926Z,100713.05
2023-12-09T02:39:59.130Z,100716.84
2023-12-09T02:42:27.849Z,100715.45
2023-12-09T02:44:57.531Z,100713.01
2023-12-09T02:47:26.627Z,100710.77
2023-12-09T02:49:55.538Z,100707.02
2023-12-09T02:52:24.002Z,100705.13
2023-12-09T02:54:51.943Z,100707.17
2023-12-09T02:57:20.531Z,100710.11
2023-12-09T02:59:48.644Z,100709.14
2023-12-09T03:02:16.668Z,100707.08
2023-12-09T03:04:45.854Z,100705.39
2023-12-09T03:07:13.879Z,100707.46
2023-12-09T03:09:41.816Z,100707.84
2023-12-09T03:12:10.275Z,100713.02
2023-12-09T03:14:38.353Z,100715.25
2023-12-09T03:17:06.544Z,100717.81
2023-12-09T03:19:35.168Z,100721.23
2023-12-09T03:22:04.257Z,100724.27
2023-12-09T03:24:32.383Z,100724.65
2023-12-09T03:27:00.517Z,100722.77
2023-12-09T03:29:28.688Z,100721.88
2023-12-09T03:31:56.646Z,100722.55
2023-12-09T03:34:24.560Z,100721.34
2023-12-09T03:36:53.037Z,100724.08
2023-12-09T03:39:21.304Z,100730.63
2023-12-09T03:41:49.333Z,100733.52
2023-12-09T03:44:17.511Z,100735.36
2023-12-09T03:46:45.486Z,100738.42
2023-12-09T03:49:13.831Z,100738.23
2023-12-09T03:51:41.954Z,100738.04
2023-12-09T03:54:10.073Z,100736.48
2023-12-09T03:56:38.375Z,100735.77
2023-12-09T03:59:06.448Z,100734.23
2023-12-09T04:01:34.432Z,100741.46
2023-12-09T04:04:02.730Z,100741.33
2023-12-09T04:06:30.753Z,100739.28
2023-12-09T04:08:58.675Z,100739.75
2023-12-09T04:11:26.683Z,100739.06
2023-12-09T04:13:54.567Z,100742.31
2023-12-09T04:16:22.576Z,100741.11
2023-12-09T04:18:51.954Z,100744.85
2023-12-09T04:21:20.132Z,100744.28
2023-12-09T04:23:48.895Z,100747.50
2023-12-09T04:26:16.833Z,100742.86
2023-12-09T04:28:44.673Z,100743.93
2023-12-09T04:31:12.774Z,100744.33
2023-12-09T04:33:40.731Z,100745.42
2023-12-09T04:36:09.191Z,100745.61
2023-12-09T04:38:37.499Z,100748.39
2023-12-09T04:41:05.556Z,100746.54
2023-12-09T04:43:33.811Z,100749.46
2023-12-09T04:46:02.135Z,100751.34
2023-12-09T04:48:30.172Z,100752.70
2023-12-09T04:50:58.434Z,100748.88
2023-12-09T04:53:26.780Z,100746.27
2023-12-09T04:55:54.749Z,100748.48
2023-12-09T04:58:22.722Z,100748.83
2023-12-09T05:00:51.001Z,100750.66
2023-12-09T05:03:19.124Z,100749.79
2023-12-09T05:05:47.841Z,100751.52
2023-12-09T05:08:15.981Z,100754.98
2023-12-09T05:10:43.864Z,100756.89
2023-12-09T05:13:12.273Z,100755.84
2023-12-09T05:15:40.325Z,100761.82
2023-12-09T05:18:08.645Z,100764.23
2023-12-09T05:20:36.749Z,100763.23
2023-12-09T05:23:05.968Z,100761.69
2023-12-09T05:25:35.191Z,100761.86
2023-12-09T05:28:04.134Z,100761.84
2023-12-09T05:30:32.529Z,100763.70
2023-12-09T05:33:01.023Z,100766.95
2023-12-09T05:35:29.191Z,100765.92
2023-12-09T05:37:57.689Z,100764.89
2023-12-09T05:40:25.729Z,100763.33
2023-12-09T05:42:53.698Z,100762.30
2023-12-09T05:45:21.908Z,100762.61
2023-12-09T05:47:50.211Z,100763.92
2023-12-09T05:50:18.257Z,100765.27
2023-12-09T05:52:47.165Z,100764.61
2023-12-09T05:55:18.365Z,100760.10
2023-12-09T05:57:46.652Z,100761.10
2023-12-09T06:00:15.125Z,100761.77
2023-12-09T06:02:43.137Z,100761.11
2023-12-09T06:05:11.713Z,100761.98
2023-12-09T06:07:39.899Z,100761.78
2023-12-09T06:10:08.280Z,100758.51
2023-12-09T06:12:36.720Z,100758.84
2023-12-09T06:15:06.937Z,100761.05
2023-12-09T06:17:35.281Z,100759.48
2023-12-09T06:20:03.811Z,100763.08
2023-12-09T06:22:32.278Z,100765.01
2023-12-09T06:25:00.296Z,100760.57
2023-12-09T06:27:29.285Z,100762.46
2023-12-09T06:29:57.518Z,100758.88
2023-12-09T06:32:25.920Z,100756.11
2023-12-09T06:34:54.292Z,100763.30
2023-12-09T06:37:22.258Z,100763.86
2023-12-09T06:39:50.478Z,100759.77
2023-12-09T06:42:18.628Z,100759.61
2023-12-09T06:44:47.311Z,100757.55
2023-12-09T06:47:15.529Z,100758.27
2023-12-09T06:49:43.763Z,100758.13
2023-12-09T06:52:11.989Z,100759.69
2023-12-09T06:54:40.490Z,100760.02
2023-12-09T06:57:08.793Z,100757.77
2023-12-09T06:59:36.889Z,100758.98
2023-12-09T07:02:04.989Z,100759.88
2023-12-09T07:04:37.580Z,100764.36
2023-12-09T07:07:09.879Z,100766.92
2023-12-09T07:09:39.922Z,100765.89
2023-12-09T07:12:08.450Z,100765.73
2023-12-09T07:14:36.412Z,100763.50
2023-12-09T07:17:04.654Z,100764.04
2023-12-09T07:19:33.598Z,100763.05
2023-12-09T07:22:04.501Z,100766.83
2023-12-09T07:24:32.698Z,100770.29
2023-12-09T07:27:01.036Z,100775.82
2023-12-09T07:29:30.934Z,100776.70
2023-12-09T07:32:00.603Z,100779.44
2023-12-09T07:34:28.859Z,100775.84
2023-12-09T07:36:57.491Z,100778.77
2023-12-09T07:39:25.307Z,100777.97
2023-12-09T07:41:53.965Z,100776.09
2023-12-09T07:44:21.983Z,100773.50
2023-12-09T07:46:50.284Z,100772.83
2023-12-09T07:49:18.342Z,100774.73
2023-12-09T07:51:46.396Z,100775.27
2023-12-09T07:54:15.061Z,100775.31
2023-12-09T07:56:43.000Z,100775.15
2023-12-09T07:59:11.450Z,100775.84
2023-12-09T08:01:39.877Z,100776.73
2023-12-09T08:04:08.335Z,100774.71
2023-12-09T08:06:36.760Z,100771.13
2023-12-09T08:09:05.821Z,100767.55
2023-12-09T08:11:33.722Z,100766.39
2023-12-09T08:14:02.171Z,100765.07
2023-12-09T08:16:30.235Z,100763.73
2023-12-09T08:18:58.462Z,100761.39
2023-12-09T08:21:26.864Z,100766.07
2023-12-09T08:23:55.816Z,100768.01
2023-12-09T08:26:24.387Z,100769.95
2023-12-09T08:28:52.383Z,100777.21
2023-12-09T08:31:20.287Z,100779.50
2023-12-09T08:33:48.867Z,100780.91
2023-12-09T08:36:17.043Z,100776.66
2023-12-09T08:38:45.044Z,100773.58
2023-12-09T08:41:13.194Z,100771.20
2023-12-09T08:43:41.098Z,100774.66
2023-12-09T08:46:08.982Z,100771.92
2023-12-09T08:48:37.371Z,100770.04
2023-12-09T08:51:05.821Z,100775.38
2023-12-09T08:53:34.417Z,100774.17
2023-12-09T08:56:02.323Z,100773.50
2023-12-09T08:58:30.418Z,100770.75
2023-12-09T09:00:58.374Z,100769.56
2023-12-09T09:03:27.237Z,100773.52
2023-12-09T09:05:55.479Z,100774.20
2023-12-09T09:08:23.469Z,100771.62
2023-12-09T09:10:51.730Z,100767.81
2023-12-09T09:13:20.411Z,100766.45
2023-12-09T09:15:48.420Z,100764.55
2023-12-09T09:18:16.503Z,100760.40
2023-12-09T09:20:44.634Z,100759.54
2023-12-09T09:23:14.050Z,100756.42
2023-12-09T09:25:42.480Z,100752.81
2023-12-09T09:28:10.460Z,100744.54
2023-12-09T09:30:38.379Z,100739.53
2023-12-09T09:33:07.993Z,100736.94
2023-12-09T09:35:36.098Z,100739.00
2023-12-09T09:38:04.060Z,100736.93
2023-12-09T09:40:31.891Z,100736.21
2023-12-09T09:43:08.858Z,100730.34
2023-12-09T09:45:38.030Z,100725.85
2023-12-09T09:48:07.509Z,100722.02
2023-12-09T09:50:42.752Z,100719.77
2023-12-09T09:53:13.898Z,100716.66
2023-12-09T09:55:43.308Z,100711.48
2023-12-09T09:58:14.550Z,100711.65
2023-12-09T10:00:43.210Z,100711.63
2023-12-09T10:03:11.558Z,100712.13
2023-12-09T10:05:39.920Z,100714.87
2023-12-09T10:08:07.912Z,100711.73
2023-12-09T10:10:36.588Z,100708.59
2023-12-09T10:13:05.016Z,100700.98
2023-12-09T10:15:33.762Z,100691.80
2023-12-09T10:18:05.020Z,100689.36
2023-12-09T10:20:36.320Z,100683.50
2023-12-09T10:23:04.576Z,100681.95
2023-12-09T10:25:32.584Z,100681.92
2023-12-09T10:28:00.718Z,100678.28
2023-12-09T10:30:29.108Z,100676.52
2023-12-09T10:32:57.854Z,100672.17
2023-12-09T10:35:26.022Z,100670.06
2023-12-09T10:37:55.348Z,100666.22
2023-12-09T10:40:26.032Z,100664.11
2023-12-09T10:42:57.619Z,100659.75
2023-12-09T10:45:25.898Z,100657.14
2023-12-09T10:47:55.077Z,100650.60
2023-12-09T10:50:24.103Z,100648.33
2023-12-09T10:52:52.090Z,100646.08
2023-12-09T10:55:20.822Z,100641.40
2023-12-09T10:57:51.355Z,100645.02
2023-12-09T11:00:20.242Z,100643.79
2023-12-09T11:02:48.457Z,100639.12
2023-12-09T11:05:18.374Z,100635.66
2023-12-09T11:07:50.397Z,100638.61
2023-12-09T11:10:20.298Z,100632.89
2023-12-09T11:12:49.046Z,100632.71
2023-12-09T11:15:17.094Z,100628.55
2023-12-09T11:17:46.406Z,100629.77
2023-12-09T11:20:18.023Z,100626.17
2023-12-09T11:22:48.370Z,100626.19
2023-12-09T11:25:26.560Z,100624.13
2023-12-09T11:27:55.395Z,100622.25
2023-12-09T11:30:37.988Z,100618.27
2023-12-09T11:33:06.580Z,100616.71
2023-12-09T11:35:38.948Z,100618.97
2023-12-09T11:38:09.160Z,100615.52
2023-12-09T11:40:37.760Z,100619.14
2023-12-09T11:43:07.806Z,100622.42
2023-12-09T11:45:38.511Z,100625.54
2023-12-09T11:48:06.905Z,100628.16
2023-12-09T11:50:35.609Z,100630.09
2023-12-09T11:53:03.873Z,100630.32
2023-12-09T11:55:32.365Z,100633.11
2023-12-09T11:58:00.399Z,100633.48
2023-12-09T12:00:28.497Z,100636.96
2023-12-09T12:02:56.739Z,100636.24
2023-12-09T12:05:24.728Z,100637.43
2023-12-09T12:07:53.985Z,100636.52
2023-12-09T12:10:23.612Z,100634.63
2023-12-09T12:12:51.839Z,100639.64
2023-12-09T12:15:20.382Z,100638.44
2023-12-09T12:17:50.056Z,100637.92
2023-12-09T12:20:18.473Z,100634.47
2023-12-09T12:22:46.888Z,100632.40
2023-12-09T12:25:15.044Z,100628.45
2023-12-09T12:27:47.876Z,100622.80
2023-12-09T12:30:16.460Z,100619.35
2023-12-09T12:32:56.640Z,100618.14
2023-12-09T12:35:26.474Z,100619.34
2023-12-09T12:37:58.337Z,100616.78
2023-12-09T12:40:27.929Z,100620.73
2023-12-09T12:42:56.428Z,100614.90
2023-12-09T12:45:28.604Z,100616.45
2023-12-09T12:47:57.807Z,100619.23
2023-12-09T12:50:26.030Z,100618.37
2023-12-09T12:52:54.436Z,100614.23
2023-12-09T12:55:23.353Z,100608.73
2023-12-09T12:57:52.476Z,100604.42
2023-12-09T13:00:21.794Z,100601.32
2023-12-09T13:02:49.886Z,100602.46
2023-12-09T13:05:18.014Z,100606.55
2023-12-09T13:07:46.208Z,100603.30
2023-12-09T13:10:14.294Z,100601.40
2023-12-09T13:12:43.112Z,100596.61
2023-12-09T13:15:11.932Z,100596.98
2023-12-09T13:17:40.664Z,100594.27
2023-12-09T13:20:11.137Z,100593.24
2023-12-09T13:22:40.223Z,100590.65
2023-12-09T13:25:09.872Z,100590.49
2023-12-09T13:27:38.878Z,100593.41
2023-12-09T13:30:08.465Z,100594.30
2023-12-09T13:32:37.588Z,100589.83
2023-12-09T13:35:08.051Z,100588.61
2023-12-09T13:37:38.091Z,100587.39
2023-12-09T13:40:10.917Z,100583.92
2023-12-09T13:42:39.497Z,100586.36
2023-12-09T13:45:08.478Z,100591.39
2023-12-09T13:47:37.159Z,100595.00
2023-12-09T13:50:06.720Z,100597.41
2023-12-09T13:52:35.611Z,100597.23
2023-12-09T13:55:04.922Z,100598.27
2023-12-09T13:57:33.983Z,100601.36
2023-12-09T14:00:09.311Z,100601.38
2023-12-09T14:02:41.062Z,100603.98
2023-12-09T14:05:11.738Z,100608.30
2023-12-09T14:07:41.783Z,100607.44
2023-12-09T14:10:10.470Z,100604.34
2023-12-09T14:12:38.932Z,100601.58
2023-12-09T14:15:08.783Z,100603.83
2023-12-09T14:17:37.980Z,100606.07
2023-12-09T14:20:07.530Z,100606.93
2023-12-09T14:22:35.955Z,100608.29
2023-12-09T14:25:05.257Z,100606.39
2023-12-09T14:27:33.638Z,100604.84
2023-12-09T14:30:01.889Z,100602.77
2023-12-09T14:32:30.071Z,100602.80
2023-12-09T14:34:58.660Z,100599.86
2023-12-09T14:37:26.876Z,100599.34
2023-12-09T14:39:55.003Z,100593.30
2023-12-09T14:42:23.167Z,100590.71
2023-12-09T14:44:51.633Z,100585.20
2023-12-09T14:47:20.187Z,100578.64
2023-12-09T14:49:49.530Z,100580.53
2023-12-09T14:52:17.968Z,100577.95
2023-12-09T14:54:46.290Z,100580.73
2023-12-09T14:57:14.917Z,100575.90
2023-12-09T14:59:43.204Z,100571.59
2023-12-09T15:02:11.307Z,100573.70
2023-12-09T15:04:39.497Z,100573.54
2023-12-09T15:07:08.290Z,100573.55
2023-12-09T15:09:37.153Z,100579.61
2023-12-09T15:12:05.682Z,100583.23
2023-12-09T15:14:33.663Z,100580.81
2023-12-09T15:17:01.943Z,100576.17
2023-12-09T15:19:30.001Z,100574.10
2023-12-09T15:21:58.596Z,100573.93
2023-12-09T15:24:26.578Z,100574.80
2023-12-09T15:26:54.589Z,100574.96
2023-12-09T15:29:22.718Z,100575.83
2023-12-09T15:31:50.639Z,100576.68
2023-12-09T15:34:19.154Z,100576.16
2023-12-09T15:36:47.916Z,100575.48
2023-12-09T15:39:17.637Z,100573.41
2023-12-09T15:41:45.941Z,100570.85
2023-12-09T15:44:13.898Z,100567.94
2023-12-09T15:46:41.949Z,100573.13
2023-12-09T15:49:10.250Z,100569.87
2023-12-09T15:51:38.385Z,100571.77
2023-12-09T15:54:09.280Z,100574.54
2023-12-09T15:56:37.444Z,100571.24
2023-12-09T15:59:05.376Z,100569.17
2023-12-09T16:01:33.448Z,100565.55
2023-12-09T16:04:01.525Z,100565.37
2023-12-09T16:06:29.668Z,100562.80
2023-12-09T16:08:57.903Z,100565.39
2023-12-09T16:11:25.924Z,100566.92
2023-12-09T16:13:54.094Z,100569.84
2023-12-09T16:16:23.144Z,100568.45
2023-12-09T16:18:51.529Z,100563.46
2023-12-09T16:21:19.873Z,100561.39
2023-12-09T16:23:47.848Z,100559.52
2023-12-09T16:26:16.371Z,100558.46
2023-12-09T16:28:46.785Z,100559.85
2023-12-09T16:31:16.875Z,100561.42
2023-12-09T16:33:45.019Z,100558.32
2023-12-09T16:36:13.610Z,100555.69
2023-12-09T16:38:41.715Z,100553.84
2023-12-09T16:41:09.740Z,100549.95
2023-12-09T16:43:37.888Z,100544.17
2023-12-09T16:46:06.164Z,100543.26
2023-12-09T16:48:34.756Z,100541.80
2023-12-09T16:51:02.953Z,100541.17
2023-12-09T16:53:31.666Z,100538.13
2023-12-09T16:56:00.928Z,100538.00
2023-12-09T16:58:29.012Z,100530.46
2023-12-09T17:00:57.241Z,100527.57
2023-12-09T17:03:25.619Z,100528.27
2023-12-09T17:05:53.723Z,100528.11
2023-12-09T17:08:21.708Z,100523.82
2023-12-09T17:10:49.872Z,100515.58
2023-12-09T17:13:17.884Z,100512.70
2023-12-09T17:15:45.851Z,100511.19
2023-12-09T17:18:14.175Z,100509.51
2023-12-09T17:20:42.385Z,100506.24
2023-12-09T17:23:10.746Z,100506.79
2023-12-09T17:25:38.641Z,100502.67
2023-12-09T17:28:06.734Z,100498.55
2023-12-09T17:30:35.472Z,100495.29
2023-12-09T17:33:04.613Z,100497.04
2023-12-09T17:35:32.758Z,100498.27
2023-12-09T17:38:00.951Z,100494.35
2023-12-09T17:40:29.082Z,100492.81
2023-12-09T17:42:57.503Z,100491.45
2023-12-09T17:45:25.959Z,100486.63
2023-12-09T17:47:54.301Z,100486.30
2023-12-09T17:50:23.001Z,100486.33
2023-12-09T17:52:52.433Z,100481.52
2023-12-09T17:55:20.581Z,100480.66
2023-12-09T17:57:49.591Z,100479.14
2023-12-09T18:00:17.830Z,100475.02
2023-12-09T18:02:46.044Z,100467.98
2023-12-09T18:05:14.298Z,100466.95
2023-12-09T18:07:42.651Z,100464.05
2023-12-09T18:10:10.838Z,100466.64
2023-12-09T18:12:38.965Z,100467.16
2023-12-09T18:15:08.549Z,100470.60
2023-12-09T18:17:36.879Z,100469.56
2023-12-09T18:20:06.360Z,100469.22
2023-12-09T18:22:34.613Z,100470.94
2023-12-09T18:25:02.677Z,100465.10
2023-12-09T18:27:32.739Z,100465.45
2023-12-09T18:30:01.091Z,100471.84
2023-12-09T18:32:34.523Z,100472.02
2023-12-09T18:35:09.317Z,100472.02
2023-12-09T18:37:38.049Z,100468.25
2023-12-09T18:40:07.520Z,100462.23
2023-12-09T18:42:35.973Z,100463.10
2023-12-09T18:45:05.761Z,100465.86
2023-12-09T18:47:36.198Z,100461.74
2023-12-09T18:50:04.757Z,100468.27
2023-12-09T18:52:33.697Z,100462.78
2023-12-09T18:55:02.355Z,100455.21
2023-12-09T18:57:31.168Z,100446.45
2023-12-09T19:00:05.845Z,100443.20
2023-12-09T19:02:34.663Z,100440.80
2023-12-09T19:05:03.365Z,100440.30
2023-12-09T19:07:31.799Z,100442.04
2023-12-09T19:10:04.897Z,100437.73
2023-12-09T19:12:34.722Z,100440.52
2023-12-09T19:15:03.867Z,100441.02
2023-12-09T19:17:32.378Z,100433.45
2023-12-09T19:20:00.783Z,100431.23
2023-12-09T19:22:29.474Z,100429.85
2023-12-09T19:24:57.757Z,100422.62
2023-12-09T19:27:26.116Z,100424.85
2023-12-09T19:29:54.893Z,100427.42
2023-12-09T19:32:23.132Z,100420.55
2023-12-09T19:34:51.551Z,100414.88
2023-12-09T19:37:19.661Z,100410.94
2023-12-09T19:39:50.193Z,100406.12
2023-12-09T19:42:19.602Z,100401.48
2023-12-09T19:44:47.955Z,100397.88
2023-12-09T19:47:15.970Z,100388.95
2023-12-09T19:49:44.438Z,100388.45
2023-12-09T19:52:15.337Z,100382.60
2023-12-09T19:54:43.622Z,100380.71
2023-12-09T19:57:11.527Z,100375.05
2023-12-09T19:59:43.258Z,100379.52
2023-12-09T20:02:11.209Z,100382.27
2023-12-09T20:04:39.249Z,100384.52
2023-12-09T20:07:08.448Z,100385.55
2023-12-09T20:09:36.625Z,100387.09
2023-12-09T20:12:05.760Z,100384.33
2023-12-09T20:14:36.746Z,100386.04
2023-12-09T20:17:07.074Z,100387.05
2023-12-09T20:19:39.052Z,100383.42
2023-12-09T20:22:10.771Z,100377.75
2023-12-09T20:24:39.497Z,100374.48
2023-12-09T20:27:07.975Z,100369.50
2023-12-09T20:29:40.130Z,100361.95
2023-12-09T20:32:08.874Z,100361.79
2023-12-09T20:34:37.095Z,100355.09
2023-12-09T20:37:05.941Z,100351.46
2023-12-09T20:39:34.425Z,100354.72
2023-12-09T20:42:02.621Z,100353.52
2023-12-09T20:44:30.969Z,100358.51
2023-12-09T20:47:00.046Z,100361.79
2023-12-09T20:49:28.523Z,100356.28
2023-12-09T20:51:56.944Z,100349.08
2023-12-09T20:54:29.392Z,100341.69
2023-12-09T20:56:57.662Z,100337.91
2023-12-09T20:59:25.970Z,100333.28
2023-12-09T21:01:55.884Z,100330.89
2023-12-09T21:04:26.961Z,100327.95
2023-12-09T21:06:55.090Z,100322.48
2023-12-09T21:09:23.499Z,100316.31
2023-12-09T21:11:51.630Z,100313.75
2023-12-09T21:14:20.819Z,100316.34
2023-12-09T21:16:48.793Z,100316.69
2023-12-09T21:19:18.621Z,100314.62
2023-12-09T21:21:46.760Z,100313.26
2023-12-09T21:24:14.932Z,100309.13
2023-12-09T21:26:43.324Z,100303.30
2023-12-09T21:29:12.143Z,100305.05
2023-12-09T21:31:40.149Z,100313.83
2023-12-09T21:34:08.388Z,100316.75
2023-12-09T21:36:36.392Z,100320.89
2023-12-09T21:39:05.037Z,100327.95
2023-12-09T21:41:33.246Z,100320.91
2023-12-09T21:44:01.457Z,100313.18
2023-12-09T21:46:29.852Z,100316.46
2023-12-09T21:48:59.660Z,100320.59
2023-12-09T21:51:29.423Z,100318.70
2023-12-09T21:53:58.161Z,100322.14
2023-12-09T21:56:29.514Z,100317.69
2023-12-09T21:58:57.725Z,100314.42
2023-12-09T22:01:26.425Z,100308.76
2023-12-09T22:03:54.417Z,100303.27
2023-12-09T22:06:22.559Z,100303.10
2023-12-09T22:08:50.661Z,100302.25
2023-12-09T22:11:18.860Z,100299.86
2023-12-09T22:13:47.396Z,100290.41
2023-12-09T22:16:20.788Z,100291.27
2023-12-09T22:18:49.786Z,100290.41
2023-12-09T22:21:18.218Z,100279.42
2023-12-09T22:23:46.428Z,100264.67
2023-12-09T22:26:14.659Z,100257.63
2023-12-09T22:28:43.179Z,100244.58
2023-12-09T22:31:11.786Z,100226.05
2023-12-09T22:33:41.578Z,100216.61
2023-12-09T22:36:10.418Z,100214.39
2023-12-09T22:38:38.629Z,100220.56
2023-12-09T22:41:06.892Z,100217.31
2023-12-09T22:43:35.026Z,100218.85
2023-12-09T22:46:03.257Z,100220.73
2023-12-09T22:48:31.496Z,100218.16
2023-12-09T22:50:59.682Z,100211.13
2023-12-09T22:53:28.215Z,100214.89
2023-12-09T22:56:12.057Z,100213.86
2023-12-09T22:58:42.315Z,100217.46
2023-12-09T23:01:11.428Z,100221.77
2023-12-09T23:03:39.918Z,100221.59
2023-12-09T23:06:09.394Z,100215.74
2023-12-09T23:08:40.369Z,100208.89
2023-12-09T23:11:08.834Z,100201.67
2023-12-09T23:13:36.884Z,100199.27
2023-12-09T23:16:05.708Z,100197.38
2023-12-09T23:18:33.886Z,100198.74
2023-12-09T23:21:03.176Z,100193.77
2023-12-09T23:23:31.454Z,100193.94
2023-12-09T23:25:59.659Z,100200.80
2023-12-09T23:28:28.527Z,100203.72
2023-12-09T23:30:56.905Z,100210.93
2023-12-09T23:33:25.038Z,100206.29
2023-12-09T23:35:53.466Z,100197.20
2023-12-09T23:38:22.303Z,100191.20
2023-12-09T23:40:51.650Z,100192.75
2023-12-09T23:43:19.849Z,100191.04
2023-12-09T23:45:48.030Z,100194.81
2023-12-09T23:48:18.665Z,100190.69
2023-12-09T23:50:47.609Z,100181.93
2023-12-09T23:53:18.179Z,100177.48
2023-12-09T23:55:46.494Z,100173.68
2023-12-09T23:58:16.068Z,100169.57
